createdAt,value
2017-12-13T00:00:13.037Z,1.76
2017-12-13T00:01:13.050Z,1.74
2017-12-13T00:02:13.034Z,1.67
2017-12-13T00:03:13.012Z,1.68
2017-12-13T00:04:12.982Z,1.63
2017-12-13T00:05:12.967Z,1.67
2017-12-13T00:06:12.954Z,1.67
2017-12-13T00:07:12.949Z,1.67
2017-12-13T00:08:12.934Z,1.76
2017-12-13T00:09:12.925Z,1.73
2017-12-13T00:10:12.899Z,1.73
2017-12-13T00:11:12.906Z,1.63
2017-12-13T00:12:12.914Z,1.74
2017-12-13T00:13:12.890Z,1.73
2017-12-13T00:14:12.851Z,1.78
2017-12-13T00:15:12.970Z,1.74
2017-12-13T00:16:12.855Z,1.84
2017-12-13T00:17:12.815Z,1.70
2017-12-13T00:18:12.814Z,1.74
2017-12-13T00:19:12.780Z,1.76
2017-12-13T00:20:12.764Z,1.81
2017-12-13T00:21:12.746Z,1.81
2017-12-13T00:22:12.744Z,1.80
2017-12-13T00:23:12.720Z,1.88
2017-12-13T00:24:12.707Z,1.84
2017-12-13T00:25:12.697Z,1.77
2017-12-13T00:26:12.684Z,1.84
2017-12-13T00:27:12.668Z,1.88
2017-12-13T00:28:12.650Z,1.87
2017-12-13T00:29:12.633Z,1.88
2017-12-13T00:30:12.623Z,1.77
2017-12-13T00:31:12.606Z,1.84
2017-12-13T00:32:12.595Z,1.84
2017-12-13T00:33:12.579Z,1.78
2017-12-13T00:34:12.610Z,1.80
2017-12-13T00:35:12.564Z,1.81
2017-12-13T00:36:12.552Z,1.81
2017-12-13T00:37:12.534Z,1.84
2017-12-13T00:38:12.509Z,1.81
2017-12-13T00:39:12.508Z,1.73
2017-12-13T00:40:12.496Z,1.87
2017-12-13T00:41:12.478Z,1.77
2017-12-13T00:42:12.464Z,1.81
2017-12-13T00:43:12.442Z,1.81
2017-12-13T00:44:12.441Z,1.70
2017-12-13T00:45:12.415Z,1.80
2017-12-13T00:46:12.399Z,1.78
2017-12-13T00:47:12.385Z,1.78
2017-12-13T00:48:12.377Z,1.68
2017-12-13T00:49:12.359Z,1.73
2017-12-13T00:50:12.348Z,1.71
2017-12-13T00:51:12.327Z,1.73
2017-12-13T00:52:12.314Z,1.60
2017-12-13T00:53:12.304Z,1.73
2017-12-13T00:54:12.286Z,1.70
2017-12-13T00:55:12.273Z,1.63
2017-12-13T00:56:12.259Z,1.59
2017-12-13T00:57:12.246Z,1.60
2017-12-13T00:58:12.229Z,1.58
2017-12-13T00:59:12.216Z,1.62
2017-12-13T01:00:12.201Z,1.67
2017-12-13T01:01:12.188Z,1.66
2017-12-13T01:02:12.173Z,1.73
2017-12-13T01:03:12.159Z,1.76
2017-12-13T01:04:12.146Z,1.71
2017-12-13T01:05:12.132Z,1.73
2017-12-13T01:06:12.116Z,1.63
2017-12-13T01:07:12.106Z,1.58
2017-12-13T01:08:12.094Z,1.62
2017-12-13T01:09:12.073Z,1.63
2017-12-13T01:10:12.066Z,1.73
2017-12-13T01:11:12.045Z,1.59
2017-12-13T01:12:12.034Z,1.63
2017-12-13T01:13:12.018Z,1.63
2017-12-13T01:14:12.002Z,1.66
2017-12-13T01:15:11.990Z,1.59
2017-12-13T01:16:11.973Z,1.60
2017-12-13T01:17:11.961Z,1.62
2017-12-13T01:18:11.949Z,1.59
2017-12-13T01:19:11.933Z,1.59
2017-12-13T01:20:11.919Z,1.56
2017-12-13T01:21:11.904Z,1.62
2017-12-13T01:22:11.889Z,1.58
2017-12-13T01:23:11.876Z,1.59
2017-12-13T01:24:11.860Z,1.56
2017-12-13T01:25:11.859Z,1.60
2017-12-13T01:26:11.869Z,1.56
2017-12-13T01:27:11.818Z,1.63
2017-12-13T01:28:11.804Z,1.59
2017-12-13T01:29:11.791Z,1.66
2017-12-13T01:30:11.775Z,1.58
2017-12-13T01:31:11.762Z,1.63
2017-12-13T01:32:11.755Z,1.67
2017-12-13T01:33:11.735Z,1.63
2017-12-13T01:34:11.720Z,1.56
2017-12-13T01:35:11.707Z,1.58
2017-12-13T01:36:11.689Z,1.62
2017-12-13T01:37:11.676Z,1.59
2017-12-13T01:38:11.668Z,1.59
2017-12-13T01:39:11.646Z,1.59
2017-12-13T01:40:11.641Z,1.56
2017-12-13T01:41:11.625Z,1.67
2017-12-13T01:42:11.606Z,1.66
2017-12-13T01:43:11.591Z,1.62
2017-12-13T01:44:11.581Z,1.62
2017-12-13T01:45:11.572Z,1.59
2017-12-13T01:46:11.548Z,1.62
2017-12-13T01:47:11.534Z,1.56
2017-12-13T01:48:11.528Z,1.52
2017-12-13T01:49:11.505Z,1.56
2017-12-13T01:50:11.491Z,1.55
2017-12-13T01:51:11.476Z,1.56
2017-12-13T01:52:11.471Z,1.59
2017-12-13T01:53:11.451Z,1.55
2017-12-13T01:54:11.432Z,1.63
2017-12-13T01:55:11.420Z,1.62
2017-12-13T01:56:11.406Z,1.62
2017-12-13T01:57:11.390Z,1.52
2017-12-13T01:58:11.379Z,1.56
2017-12-13T01:59:11.361Z,1.58
2017-12-13T02:00:11.347Z,1.63
2017-12-13T02:01:11.335Z,1.53
2017-12-13T02:02:11.321Z,1.53
2017-12-13T02:03:11.307Z,1.58
2017-12-13T02:04:11.306Z,1.53
2017-12-13T02:05:11.280Z,1.41
2017-12-13T02:06:11.262Z,1.42
2017-12-13T02:07:11.249Z,1.40
2017-12-13T02:08:11.231Z,1.37
2017-12-13T02:09:13.403Z,1.42
2017-12-13T02:10:11.206Z,1.40
2017-12-13T02:11:11.190Z,1.42
2017-12-13T02:12:11.175Z,1.40
2017-12-13T02:13:11.162Z,1.41
2017-12-13T02:14:11.149Z,1.44
2017-12-13T02:15:11.133Z,1.35
2017-12-13T02:16:11.116Z,1.35
2017-12-13T02:17:11.109Z,1.34
2017-12-13T02:18:11.092Z,1.35
2017-12-13T02:19:11.075Z,1.34
2017-12-13T02:20:11.062Z,1.35
2017-12-13T02:21:11.049Z,1.40
2017-12-13T02:22:11.038Z,1.42
2017-12-13T02:23:11.018Z,1.38
2017-12-13T02:24:11.006Z,1.42
2017-12-13T02:25:10.988Z,1.38
2017-12-13T02:26:10.977Z,1.44
2017-12-13T02:27:10.983Z,1.41
2017-12-13T02:28:10.945Z,1.41
2017-12-13T02:29:10.940Z,1.34
2017-12-13T02:30:10.928Z,1.35
2017-12-13T02:31:10.903Z,1.30
2017-12-13T02:32:10.888Z,1.26
2017-12-13T02:33:10.873Z,1.28
2017-12-13T02:34:10.862Z,1.28
2017-12-13T02:35:10.847Z,1.37
2017-12-13T02:36:10.829Z,1.28
2017-12-13T02:37:10.815Z,1.34
2017-12-13T02:38:10.811Z,1.31
2017-12-13T02:39:10.786Z,1.32
2017-12-13T02:40:10.774Z,1.30
2017-12-13T02:41:10.773Z,1.30
2017-12-13T02:42:10.746Z,1.30
2017-12-13T02:43:10.750Z,1.30
2017-12-13T02:44:10.714Z,1.34
2017-12-13T02:45:10.702Z,1.41
2017-12-13T02:46:10.689Z,1.32
2017-12-13T02:47:10.672Z,1.35
2017-12-13T02:48:10.657Z,1.28
2017-12-13T02:49:10.643Z,1.30
2017-12-13T02:50:10.627Z,1.34
2017-12-13T02:51:10.614Z,1.23
2017-12-13T02:52:10.604Z,1.28
2017-12-13T02:53:10.584Z,1.28
2017-12-13T02:54:10.575Z,1.22
2017-12-13T02:55:10.557Z,1.26
2017-12-13T02:56:10.541Z,1.20
2017-12-13T02:57:10.534Z,1.19
2017-12-13T02:58:10.510Z,1.26
2017-12-13T02:59:10.496Z,1.26
2017-12-13T03:00:10.483Z,1.20
2017-12-13T03:01:10.468Z,1.20
2017-12-13T03:02:10.473Z,1.16
2017-12-13T03:03:10.438Z,1.28
2017-12-13T03:04:10.422Z,1.19
2017-12-13T03:05:10.408Z,1.12
2017-12-13T03:06:10.395Z,1.14
2017-12-13T03:07:10.379Z,1.14
2017-12-13T03:08:10.368Z,1.22
2017-12-13T03:09:10.351Z,1.20
2017-12-13T03:10:10.336Z,1.08
2017-12-13T03:11:10.326Z,1.16
2017-12-13T03:12:10.309Z,1.10
2017-12-13T03:13:10.293Z,1.19
2017-12-13T03:14:10.278Z,1.17
2017-12-13T03:15:10.266Z,1.13
2017-12-13T03:16:10.250Z,1.20
2017-12-13T03:17:10.235Z,1.23
2017-12-13T03:18:10.218Z,1.23
2017-12-13T03:19:10.208Z,1.23
2017-12-13T03:20:10.191Z,1.24
2017-12-13T03:21:10.177Z,1.23
2017-12-13T03:22:10.161Z,1.22
2017-12-13T03:23:10.145Z,1.12
2017-12-13T03:24:10.131Z,1.26
2017-12-13T03:25:10.118Z,1.20
2017-12-13T03:26:10.103Z,1.23
2017-12-13T03:27:10.088Z,1.24
2017-12-13T03:28:10.072Z,1.22
2017-12-13T03:29:10.059Z,1.30
2017-12-13T03:30:10.045Z,1.28
2017-12-13T03:31:10.034Z,1.28
2017-12-13T03:32:10.015Z,1.31
2017-12-13T03:33:10.001Z,1.22
2017-12-13T03:34:09.986Z,1.28
2017-12-13T03:35:09.976Z,1.28
2017-12-13T03:36:09.958Z,1.40
2017-12-13T03:37:09.951Z,1.40
2017-12-13T03:38:09.930Z,1.41
2017-12-13T03:39:09.917Z,1.35
2017-12-13T03:40:09.899Z,1.38
2017-12-13T03:41:09.888Z,1.38
2017-12-13T03:42:09.870Z,1.38
2017-12-13T03:43:09.865Z,1.41
2017-12-13T03:44:09.840Z,1.42
2017-12-13T03:45:09.826Z,1.48
2017-12-13T03:46:09.812Z,1.41
2017-12-13T03:47:09.797Z,1.41
2017-12-13T03:48:09.783Z,1.48
2017-12-13T03:49:09.771Z,1.41
2017-12-13T03:50:09.763Z,1.48
2017-12-13T03:51:09.740Z,1.41
2017-12-13T03:52:09.727Z,1.41
2017-12-13T03:53:09.712Z,1.42
2017-12-13T03:54:09.697Z,1.45
2017-12-13T03:55:09.683Z,1.56
2017-12-13T03:56:09.666Z,1.55
2017-12-13T03:57:09.652Z,1.55
2017-12-13T03:58:09.637Z,1.55
2017-12-13T03:59:09.623Z,1.56
2017-12-13T04:00:09.610Z,1.58
2017-12-13T04:01:09.594Z,1.59
2017-12-13T04:02:09.580Z,1.53
2017-12-13T04:03:09.565Z,1.52
2017-12-13T04:04:09.550Z,1.52
2017-12-13T04:05:09.538Z,1.50
2017-12-13T04:06:09.524Z,1.48
2017-12-13T04:07:09.508Z,1.40
2017-12-13T04:08:09.495Z,1.30
2017-12-13T04:09:09.479Z,1.40
2017-12-13T04:10:09.473Z,1.40
2017-12-13T04:11:09.452Z,1.40
2017-12-13T04:12:09.439Z,1.30
2017-12-13T04:13:09.420Z,1.24
2017-12-13T04:14:09.408Z,1.41
2017-12-13T04:15:09.390Z,1.35
2017-12-13T04:16:09.378Z,1.35
2017-12-13T04:17:09.363Z,1.40
2017-12-13T04:18:09.347Z,1.31
2017-12-13T04:19:09.407Z,1.48
2017-12-13T04:20:09.337Z,1.34
2017-12-13T04:21:09.303Z,1.28
2017-12-13T04:22:09.300Z,1.41
2017-12-13T04:23:09.276Z,1.42
2017-12-13T04:24:09.264Z,1.40
2017-12-13T04:25:09.249Z,1.44
2017-12-13T04:26:09.233Z,1.45
2017-12-13T04:27:09.225Z,1.40
2017-12-13T04:28:09.204Z,1.40
2017-12-13T04:29:09.201Z,1.44
2017-12-13T04:30:09.172Z,1.37
2017-12-13T04:31:09.158Z,1.41
2017-12-13T04:32:09.143Z,1.37
2017-12-13T04:33:09.129Z,1.37
2017-12-13T04:34:09.116Z,1.44
2017-12-13T04:35:09.103Z,1.42
2017-12-13T04:36:09.086Z,1.42
2017-12-13T04:37:09.074Z,1.34
2017-12-13T04:38:09.057Z,1.44
2017-12-13T04:39:09.052Z,1.37
2017-12-13T04:40:09.027Z,1.42
2017-12-13T04:41:09.013Z,1.42
2017-12-13T04:42:08.998Z,1.37
2017-12-13T04:43:08.993Z,1.37
2017-12-13T04:44:08.971Z,1.42
2017-12-13T04:45:08.955Z,1.44
2017-12-13T04:46:08.950Z,1.44
2017-12-13T04:47:08.927Z,1.41
2017-12-13T04:48:08.911Z,1.49
2017-12-13T04:49:08.899Z,1.42
2017-12-13T04:50:08.885Z,1.45
2017-12-13T04:51:08.870Z,1.45
2017-12-13T04:52:08.856Z,1.45
2017-12-13T04:53:08.842Z,1.58
2017-12-13T04:54:08.827Z,1.52
2017-12-13T04:55:08.812Z,1.53
2017-12-13T04:56:08.797Z,1.45
2017-12-13T04:57:08.785Z,1.42
2017-12-13T04:58:08.770Z,1.44
2017-12-13T04:59:08.756Z,1.41
2017-12-13T05:00:08.738Z,1.40
2017-12-13T05:01:08.726Z,1.40
2017-12-13T05:02:08.713Z,1.40
2017-12-13T05:03:08.697Z,1.42
2017-12-13T05:04:08.683Z,1.37
2017-12-13T05:05:08.673Z,1.41
2017-12-13T05:06:08.655Z,1.34
2017-12-13T05:07:08.646Z,1.38
2017-12-13T05:08:08.628Z,1.32
2017-12-13T05:09:08.615Z,1.31
2017-12-13T05:10:08.602Z,1.35
2017-12-13T05:11:08.585Z,1.34
2017-12-13T05:12:08.566Z,1.22
2017-12-13T05:13:08.553Z,1.34
2017-12-13T05:14:08.541Z,1.28
2017-12-13T05:15:08.525Z,1.30
2017-12-13T05:16:08.509Z,1.24
2017-12-13T05:17:08.496Z,1.28
2017-12-13T05:18:08.481Z,1.31
2017-12-13T05:19:08.468Z,1.28
2017-12-13T05:20:08.451Z,1.22
2017-12-13T05:21:08.438Z,1.22
2017-12-13T05:22:08.429Z,1.17
2017-12-13T05:23:08.409Z,1.23
2017-12-13T05:24:08.410Z,1.24
2017-12-13T05:25:08.380Z,1.28
2017-12-13T05:26:08.365Z,1.20
2017-12-13T05:27:08.396Z,1.28
2017-12-13T05:28:08.335Z,1.23
2017-12-13T05:29:08.327Z,1.19
2017-12-13T05:30:08.310Z,1.19
2017-12-13T05:31:08.293Z,1.19
2017-12-13T05:32:08.279Z,1.22
2017-12-13T05:33:08.264Z,1.14
2017-12-13T05:34:08.249Z,1.16
2017-12-13T05:35:08.234Z,1.14
2017-12-13T05:36:08.219Z,1.13
2017-12-13T05:37:08.209Z,1.16
2017-12-13T05:38:08.192Z,1.22
2017-12-13T05:39:08.175Z,1.28
2017-12-13T05:40:08.161Z,1.24
2017-12-13T05:41:08.154Z,1.17
2017-12-13T05:42:08.132Z,1.17
2017-12-13T05:43:08.130Z,1.14
2017-12-13T05:44:08.106Z,1.23
2017-12-13T05:45:08.130Z,1.14
2017-12-13T05:46:08.073Z,1.13
2017-12-13T05:47:08.059Z,1.17
2017-12-13T05:48:08.046Z,1.10
2017-12-13T05:49:08.032Z,1.17
2017-12-13T05:50:08.021Z,1.13
2017-12-13T05:51:08.000Z,1.10
2017-12-13T05:52:07.985Z,1.13
2017-12-13T05:53:08.019Z,1.13
2017-12-13T05:54:07.956Z,1.14
2017-12-13T05:55:07.942Z,1.16
2017-12-13T05:56:07.931Z,1.20
2017-12-13T05:57:07.917Z,1.10
2017-12-13T05:58:07.899Z,1.17
2017-12-13T05:59:07.885Z,1.14
2017-12-13T06:00:07.870Z,1.26
2017-12-13T06:01:07.859Z,1.23
2017-12-13T06:02:07.840Z,1.24
2017-12-13T06:03:07.827Z,1.26
2017-12-13T06:04:07.810Z,1.22
2017-12-13T06:05:07.800Z,1.23
2017-12-13T06:06:07.781Z,1.28
2017-12-13T06:07:07.767Z,1.23
2017-12-13T06:08:07.750Z,1.22
2017-12-13T06:09:07.738Z,1.22
2017-12-13T06:10:07.742Z,1.28
2017-12-13T06:11:07.712Z,1.23
2017-12-13T06:12:07.694Z,1.30
2017-12-13T06:13:07.694Z,1.31
2017-12-13T06:14:07.671Z,1.26
2017-12-13T06:15:07.649Z,1.31
2017-12-13T06:16:07.638Z,1.31
2017-12-13T06:17:07.619Z,1.35
2017-12-13T06:18:07.606Z,1.32
2017-12-13T06:19:07.590Z,1.35
2017-12-13T06:20:07.653Z,1.35
2017-12-13T06:21:07.561Z,1.37
2017-12-13T06:22:07.547Z,1.40
2017-12-13T06:23:07.533Z,1.44
2017-12-13T06:24:07.518Z,1.49
2017-12-13T06:25:07.503Z,1.52
2017-12-13T06:26:07.498Z,1.56
2017-12-13T06:27:07.475Z,1.59
2017-12-13T06:28:07.462Z,1.53
2017-12-13T06:29:07.444Z,1.59
2017-12-13T06:30:07.434Z,1.52
2017-12-13T06:31:07.415Z,1.55
2017-12-13T06:32:07.401Z,1.62
2017-12-13T06:33:07.392Z,1.60
2017-12-13T06:34:07.372Z,1.76
2017-12-13T06:35:07.358Z,1.73
2017-12-13T06:36:07.398Z,1.78
2017-12-13T06:37:07.329Z,1.70
2017-12-13T06:38:07.381Z,1.74
2017-12-13T06:39:07.301Z,1.71
2017-12-13T06:40:07.286Z,1.67
2017-12-13T06:41:07.271Z,1.67
2017-12-13T06:42:07.259Z,1.76
2017-12-13T06:43:07.242Z,1.70
2017-12-13T06:44:07.230Z,1.74
2017-12-13T06:45:07.212Z,1.77
2017-12-13T06:46:07.198Z,1.67
2017-12-13T06:47:07.192Z,1.76
2017-12-13T06:48:07.168Z,1.73
2017-12-13T06:49:07.214Z,1.78
2017-12-13T06:50:07.143Z,1.81
2017-12-13T06:51:07.126Z,1.77
2017-12-13T06:52:07.111Z,1.77
2017-12-13T06:53:07.096Z,1.80
2017-12-13T06:54:07.084Z,1.81
2017-12-13T06:55:07.069Z,1.81
2017-12-13T06:56:07.055Z,1.80
2017-12-13T06:57:07.041Z,1.85
2017-12-13T06:58:07.025Z,1.85
2017-12-13T06:59:07.012Z,1.84
2017-12-13T07:00:06.996Z,1.89
2017-12-13T07:01:06.980Z,1.94
2017-12-13T07:02:06.966Z,1.88
2017-12-13T07:03:06.952Z,1.85
2017-12-13T07:04:06.937Z,1.99
2017-12-13T07:05:06.924Z,1.91
2017-12-13T07:06:06.910Z,1.94
2017-12-13T07:07:06.894Z,2.11
2017-12-13T07:08:06.878Z,2.10
2017-12-13T07:09:06.867Z,2.06
2017-12-13T07:10:06.850Z,2.10
2017-12-13T07:11:06.837Z,2.08
2017-12-13T07:12:06.822Z,2.13
2017-12-13T07:13:06.808Z,2.13
2017-12-13T07:14:06.796Z,2.04
2017-12-13T07:15:06.782Z,2.15
2017-12-13T07:16:06.832Z,2.08
2017-12-13T07:17:06.753Z,2.13
2017-12-13T07:18:06.737Z,2.10
2017-12-13T07:19:06.725Z,2.06
2017-12-13T07:20:06.709Z,2.11
2017-12-13T07:21:06.696Z,2.06
2017-12-13T07:22:06.689Z,2.24
2017-12-13T07:23:06.665Z,2.15
2017-12-13T07:24:06.651Z,2.17
2017-12-13T07:25:06.639Z,2.20
2017-12-13T07:26:06.625Z,2.20
2017-12-13T07:27:06.615Z,2.20
2017-12-13T07:28:06.595Z,2.17
2017-12-13T07:29:06.596Z,2.29
2017-12-13T07:30:06.571Z,2.18
2017-12-13T07:31:06.554Z,2.33
2017-12-13T07:32:06.538Z,2.36
2017-12-13T07:33:06.526Z,2.32
2017-12-13T07:34:06.510Z,2.28
2017-12-13T07:35:06.504Z,2.29
2017-12-13T07:36:06.487Z,2.38
2017-12-13T07:37:06.469Z,2.42
2017-12-13T07:38:06.455Z,2.38
2017-12-13T07:39:06.443Z,2.31
2017-12-13T07:40:06.426Z,2.49
2017-12-13T07:41:06.414Z,2.50
2017-12-13T07:42:06.398Z,2.49
2017-12-13T07:43:06.399Z,2.43
2017-12-13T07:44:06.370Z,2.53
2017-12-13T07:45:06.357Z,2.49
2017-12-13T07:46:06.348Z,2.38
2017-12-13T07:47:06.335Z,2.49
2017-12-13T07:48:06.315Z,2.47
2017-12-13T07:49:06.302Z,2.42
2017-12-13T07:50:06.287Z,2.49
2017-12-13T07:51:06.275Z,2.47
2017-12-13T07:52:06.274Z,2.50
2017-12-13T07:53:06.255Z,2.54
2017-12-13T07:54:06.236Z,2.56
2017-12-13T07:55:06.233Z,2.53
2017-12-13T07:56:06.206Z,2.56
2017-12-13T07:57:06.192Z,2.60
2017-12-13T07:58:06.177Z,2.60
2017-12-13T07:59:06.166Z,2.53
2017-12-13T08:00:06.148Z,2.53
2017-12-13T08:01:06.136Z,2.57
2017-12-13T08:02:06.124Z,2.60
2017-12-13T08:03:06.114Z,2.67
2017-12-13T08:04:06.095Z,2.67
2017-12-13T08:05:06.080Z,2.56
2017-12-13T08:06:06.070Z,2.57
2017-12-13T08:07:06.075Z,2.54
2017-12-13T08:08:06.038Z,2.64
2017-12-13T08:09:06.028Z,2.67
2017-12-13T08:10:06.014Z,2.75
2017-12-13T08:11:06.003Z,2.79
2017-12-13T08:12:05.984Z,2.71
2017-12-13T08:13:05.971Z,2.79
2017-12-13T08:14:05.957Z,2.77
2017-12-13T08:15:05.945Z,2.74
2017-12-13T08:16:05.932Z,2.83
2017-12-13T08:17:05.919Z,2.86
2017-12-13T08:18:05.905Z,2.89
2017-12-13T08:19:05.898Z,2.98
2017-12-13T08:20:05.883Z,2.98
2017-12-13T08:21:05.863Z,2.95
2017-12-13T08:22:05.851Z,3.03
2017-12-13T08:23:05.839Z,2.98
2017-12-13T08:24:05.823Z,3.07
2017-12-13T08:25:05.812Z,3.07
2017-12-13T08:26:05.798Z,3.07
2017-12-13T08:27:05.784Z,3.03
2017-12-13T08:28:05.781Z,3.13
2017-12-13T08:29:05.755Z,3.13
2017-12-13T08:30:05.749Z,3.14
2017-12-13T08:31:05.747Z,3.11
2017-12-13T08:32:05.716Z,3.21
2017-12-13T08:33:05.703Z,3.18
2017-12-13T08:34:05.689Z,3.11
2017-12-13T08:35:05.677Z,3.13
2017-12-13T08:36:05.666Z,3.14
2017-12-13T08:37:05.650Z,3.11
2017-12-13T08:38:05.637Z,3.07
2017-12-13T08:39:05.632Z,3.14
2017-12-13T08:40:05.610Z,3.10
2017-12-13T08:41:05.598Z,3.14
2017-12-13T08:42:05.584Z,3.05
2017-12-13T08:43:05.576Z,3.11
2017-12-13T08:44:05.560Z,3.14
2017-12-13T08:45:05.547Z,3.16
2017-12-13T08:46:05.532Z,3.05
2017-12-13T08:47:05.521Z,3.18
2017-12-13T08:48:05.507Z,3.16
2017-12-13T08:49:05.492Z,3.05
2017-12-13T08:50:05.478Z,3.16
2017-12-13T08:51:05.473Z,3.18
2017-12-13T08:52:05.455Z,3.10
2017-12-13T08:53:05.439Z,3.13
2017-12-13T08:54:05.431Z,3.14
2017-12-13T08:55:05.413Z,3.05
2017-12-13T08:56:05.403Z,3.10
2017-12-13T08:57:05.387Z,3.14
2017-12-13T08:58:05.388Z,3.13
2017-12-13T08:59:05.361Z,3.16
2017-12-13T09:00:05.345Z,3.19
2017-12-13T09:01:05.348Z,3.16
2017-12-13T09:02:05.321Z,3.21
2017-12-13T09:03:05.309Z,3.22
2017-12-13T09:04:05.300Z,3.21
2017-12-13T09:05:05.290Z,3.25
2017-12-13T09:06:05.269Z,3.21
2017-12-13T09:07:05.257Z,3.25
2017-12-13T09:08:05.240Z,3.26
2017-12-13T09:09:05.229Z,3.31
2017-12-13T09:10:05.216Z,3.34
2017-12-13T09:11:05.203Z,3.28
2017-12-13T09:12:05.190Z,3.34
2017-12-13T09:13:05.199Z,3.34
2017-12-13T09:14:05.164Z,3.41
2017-12-13T09:15:05.152Z,3.40
2017-12-13T09:16:05.138Z,3.29
2017-12-13T09:17:05.124Z,3.40
2017-12-13T09:18:05.113Z,3.37
2017-12-13T09:19:05.100Z,3.34
2017-12-13T09:20:05.083Z,3.34
2017-12-13T09:21:05.092Z,3.28
2017-12-13T09:22:05.060Z,3.34
2017-12-13T09:23:05.048Z,3.31
2017-12-13T09:24:05.036Z,3.23
2017-12-13T09:25:05.027Z,3.34
2017-12-13T09:26:05.007Z,3.32
2017-12-13T09:27:05.003Z,3.34
2017-12-13T09:28:04.979Z,3.23
2017-12-13T09:29:04.969Z,3.26
2017-12-13T09:30:04.956Z,3.21
2017-12-13T09:31:04.952Z,3.19
2017-12-13T09:32:04.929Z,3.26
2017-12-13T09:33:04.917Z,3.14
2017-12-13T09:34:04.900Z,3.18
2017-12-13T09:35:04.904Z,3.21
2017-12-13T09:36:04.876Z,3.25
2017-12-13T09:37:04.928Z,3.28
2017-12-13T09:38:04.849Z,3.25
2017-12-13T09:39:04.843Z,3.26
2017-12-13T09:40:04.825Z,3.23
2017-12-13T09:41:04.807Z,3.26
2017-12-13T09:42:04.795Z,3.26
2017-12-13T09:43:04.784Z,3.22
2017-12-13T09:44:04.768Z,3.25
2017-12-13T09:45:04.760Z,3.25
2017-12-13T09:46:04.741Z,3.25
2017-12-13T09:47:04.728Z,3.22
2017-12-13T09:48:04.719Z,3.31
2017-12-13T09:49:04.701Z,3.23
2017-12-13T09:50:04.689Z,3.26
2017-12-13T09:51:04.679Z,3.31
2017-12-13T09:52:04.665Z,3.28
2017-12-13T09:53:04.648Z,3.23
2017-12-13T09:54:04.636Z,3.18
2017-12-13T09:55:04.623Z,3.25
2017-12-13T09:56:04.608Z,3.28
2017-12-13T09:57:04.595Z,3.34
2017-12-13T09:58:04.582Z,3.34
2017-12-13T09:59:05.069Z,3.26
2017-12-13T10:00:09.424Z,3.26
2017-12-13T10:01:06.384Z,3.29
2017-12-13T10:02:07.048Z,3.31
2017-12-13T10:03:07.206Z,3.29
2017-12-13T10:04:07.527Z,3.36
2017-12-13T10:05:06.960Z,3.31
2017-12-13T10:06:07.161Z,3.31
2017-12-13T10:07:06.927Z,3.34
2017-12-13T10:08:08.480Z,3.32
2017-12-13T10:09:05.787Z,3.28
2017-12-13T10:10:05.235Z,3.29
2017-12-13T10:11:07.458Z,3.42
2017-12-13T10:12:05.563Z,3.45
2017-12-13T10:13:04.382Z,3.48
2017-12-13T10:14:04.378Z,3.47
2017-12-13T10:15:04.487Z,3.48
2017-12-13T10:16:04.349Z,3.56
2017-12-13T10:17:04.358Z,3.53
2017-12-13T10:18:04.325Z,3.48
2017-12-13T10:19:04.311Z,3.55
2017-12-13T10:20:04.433Z,3.51
2017-12-13T10:21:04.475Z,3.58
2017-12-13T10:22:04.270Z,3.56
2017-12-13T10:23:04.259Z,3.53
2017-12-13T10:24:04.243Z,3.48
2017-12-13T10:25:04.230Z,3.44
2017-12-13T10:26:04.217Z,3.51
2017-12-13T10:27:04.208Z,3.51
2017-12-13T10:28:04.196Z,3.51
2017-12-13T10:29:04.179Z,3.56
2017-12-13T10:30:04.172Z,3.51
2017-12-13T10:31:04.158Z,3.50
2017-12-13T10:32:04.138Z,3.58
2017-12-13T10:33:04.125Z,3.53
2017-12-13T10:34:04.115Z,3.59
2017-12-13T10:35:04.100Z,3.65
2017-12-13T10:36:04.082Z,3.68
2017-12-13T10:37:04.067Z,3.56
2017-12-13T10:38:04.085Z,3.62
2017-12-13T10:39:04.048Z,3.62
2017-12-13T10:40:04.028Z,3.63
2017-12-13T10:41:04.022Z,3.66
2017-12-13T10:42:04.002Z,3.66
2017-12-13T10:43:03.990Z,3.55
2017-12-13T10:44:03.977Z,3.56
2017-12-13T10:45:03.961Z,3.50
2017-12-13T10:46:03.959Z,3.53
2017-12-13T10:47:03.938Z,3.51
2017-12-13T10:48:03.922Z,3.60
2017-12-13T10:49:03.911Z,3.48
2017-12-13T10:50:03.899Z,3.47
2017-12-13T10:51:03.884Z,3.53
2017-12-13T10:52:03.869Z,3.53
2017-12-13T10:53:03.860Z,3.51
2017-12-13T10:54:03.849Z,3.58
2017-12-13T10:55:03.870Z,3.51
2017-12-13T10:56:03.817Z,3.53
2017-12-13T10:57:03.806Z,3.56
2017-12-13T10:58:03.792Z,3.53
2017-12-13T10:59:03.779Z,3.51
2017-12-13T11:00:03.771Z,3.55
2017-12-13T11:01:03.751Z,3.51
2017-12-13T11:02:03.741Z,3.50
2017-12-13T11:03:03.725Z,3.44
2017-12-13T11:04:03.714Z,3.50
2017-12-13T11:05:03.700Z,3.51
2017-12-13T11:06:03.687Z,3.50
2017-12-13T11:07:03.674Z,3.55
2017-12-13T11:08:03.660Z,3.51
2017-12-13T11:09:03.647Z,3.56
2017-12-13T11:10:03.634Z,3.45
2017-12-13T11:11:03.620Z,3.42
2017-12-13T11:12:03.608Z,3.56
2017-12-13T11:13:03.595Z,3.48
2017-12-13T11:14:03.581Z,3.47
2017-12-13T11:15:03.568Z,3.58
2017-12-13T11:16:03.554Z,3.51
2017-12-13T11:17:03.541Z,3.56
2017-12-13T11:18:03.528Z,3.53
2017-12-13T11:19:03.560Z,3.56
2017-12-13T11:20:03.504Z,3.50
2017-12-13T11:21:03.489Z,3.50
2017-12-13T11:22:03.485Z,3.69
2017-12-13T11:23:03.464Z,3.68
2017-12-13T11:24:03.451Z,3.51
2017-12-13T11:25:03.439Z,3.55
2017-12-13T11:26:03.424Z,3.47
2017-12-13T11:27:03.412Z,3.65
2017-12-13T11:28:03.396Z,3.51
2017-12-13T11:29:03.385Z,3.65
2017-12-13T11:30:03.371Z,3.56
2017-12-13T11:31:03.358Z,3.56
2017-12-13T11:32:03.347Z,3.50
2017-12-13T11:33:03.330Z,3.55
2017-12-13T11:34:03.317Z,3.55
2017-12-13T11:35:03.306Z,3.56
2017-12-13T11:36:03.290Z,3.56
2017-12-13T11:37:03.278Z,3.58
2017-12-13T11:38:03.264Z,3.58
2017-12-13T11:39:03.254Z,3.48
2017-12-13T11:40:03.241Z,3.58
2017-12-13T11:41:03.224Z,3.58
2017-12-13T11:42:03.215Z,3.60
2017-12-13T11:43:03.200Z,3.53
2017-12-13T11:44:03.188Z,3.56
2017-12-13T11:45:03.175Z,3.50
2017-12-13T11:46:03.788Z,3.56
2017-12-13T11:47:03.146Z,3.53
2017-12-13T11:48:03.154Z,3.53
2017-12-13T11:49:03.119Z,3.48
2017-12-13T11:50:03.106Z,3.51
2017-12-13T11:51:03.110Z,3.51
2017-12-13T11:52:03.080Z,3.47
2017-12-13T11:53:03.069Z,3.55
2017-12-13T11:54:03.054Z,3.53
2017-12-13T11:55:03.043Z,3.56
2017-12-13T11:56:03.032Z,3.51
2017-12-13T11:57:03.015Z,3.53
2017-12-13T11:58:03.003Z,3.58
2017-12-13T11:59:02.992Z,3.56
2017-12-13T12:00:02.976Z,3.48
2017-12-13T12:01:02.963Z,3.48
2017-12-13T12:02:02.949Z,3.53
2017-12-13T12:03:02.939Z,3.51
2017-12-13T12:04:02.924Z,3.50
2017-12-13T12:05:02.915Z,3.47
2017-12-13T12:06:02.897Z,3.53
2017-12-13T12:07:02.887Z,3.51
2017-12-13T12:08:02.873Z,3.41
2017-12-13T12:09:02.861Z,3.50
2017-12-13T12:10:02.853Z,3.51
2017-12-13T12:11:02.833Z,3.42
2017-12-13T12:12:02.823Z,3.45
2017-12-13T12:13:02.812Z,3.42
2017-12-13T12:14:02.796Z,3.41
2017-12-13T12:15:02.780Z,3.40
2017-12-13T12:16:02.776Z,3.31
2017-12-13T12:17:02.752Z,3.37
2017-12-13T12:18:02.740Z,3.44
2017-12-13T12:19:02.727Z,3.42
2017-12-13T12:20:02.715Z,3.48
2017-12-13T12:21:02.700Z,3.47
2017-12-13T12:22:02.744Z,3.48
2017-12-13T12:23:02.675Z,3.47
2017-12-13T12:24:02.661Z,3.36
2017-12-13T12:25:02.649Z,3.45
2017-12-13T12:26:02.637Z,3.44
2017-12-13T12:27:02.636Z,3.45
2017-12-13T12:28:02.616Z,3.48
2017-12-13T12:29:02.594Z,3.36
2017-12-13T12:30:02.583Z,3.37
2017-12-13T12:31:02.575Z,3.48
2017-12-13T12:32:02.555Z,3.40
2017-12-13T12:33:02.543Z,3.51
2017-12-13T12:34:02.530Z,3.50
2017-12-13T12:35:02.517Z,3.53
2017-12-13T12:36:02.506Z,3.56
2017-12-13T12:37:02.490Z,3.55
2017-12-13T12:38:02.479Z,3.55
2017-12-13T12:39:02.463Z,3.47
2017-12-13T12:40:02.451Z,3.44
2017-12-13T12:41:02.439Z,3.47
2017-12-13T12:42:02.425Z,3.47
2017-12-13T12:43:02.410Z,3.36
2017-12-13T12:44:02.398Z,3.51
2017-12-13T12:45:02.385Z,3.50
2017-12-13T12:46:02.371Z,3.53
2017-12-13T12:47:02.360Z,3.51
2017-12-13T12:48:02.348Z,3.53
2017-12-13T12:49:02.332Z,3.56
2017-12-13T12:50:02.414Z,3.48
2017-12-13T12:51:05.082Z,3.47
2017-12-13T12:52:06.428Z,3.53
2017-12-13T12:53:05.132Z,3.51
2017-12-13T12:54:04.485Z,3.53
2017-12-13T12:55:05.303Z,3.51
2017-12-13T12:56:06.910Z,3.47
2017-12-13T12:57:05.940Z,3.47
2017-12-13T12:58:06.363Z,3.42
2017-12-13T12:59:04.657Z,3.45
2017-12-13T13:00:04.741Z,3.42
2017-12-13T13:01:04.865Z,3.40
2017-12-13T13:02:06.918Z,3.42
2017-12-13T13:03:04.714Z,3.41
2017-12-13T13:04:06.360Z,3.42
2017-12-13T13:05:05.010Z,3.36
2017-12-13T13:06:06.974Z,3.42
2017-12-13T13:07:04.922Z,3.36
2017-12-13T13:08:04.849Z,3.37
2017-12-13T13:09:02.073Z,3.34
2017-12-13T13:10:03.446Z,3.37
2017-12-13T13:11:02.421Z,3.36
2017-12-13T13:12:02.030Z,3.34
2017-12-13T13:13:02.032Z,3.40
2017-12-13T13:14:02.016Z,3.34
2017-12-13T13:15:02.190Z,3.42
2017-12-13T13:16:01.980Z,3.40
2017-12-13T13:17:02.254Z,3.29
2017-12-13T13:18:03.962Z,3.40